createdAt,value
2019-03-12T00:02:25.829Z,100.00
2019-03-12T00:04:53.116Z,100.00
2019-03-12T00:07:20.306Z,100.00
2019-03-12T00:09:47.599Z,100.00
2019-03-12T00:12:14.708Z,100.00
2019-03-12T00:14:42.077Z,100.00
2019-03-12T00:17:09.481Z,100.00
2019-03-12T00:19:36.597Z,100.00
2019-03-12T00:22:03.631Z,100.00
2019-03-12T00:24:30.817Z,100.00
2019-03-12T00:26:57.875Z,100.00
2019-03-12T00:29:37.343Z,100.00
2019-03-12T00:32:04.756Z,100.00
2019-03-12T00:34:31.886Z,100.00
2019-03-12T00:36:59.064Z,100.00
2019-03-12T00:39:26.108Z,100.00
2019-03-12T00:41:53.140Z,100.00
2019-03-12T00:44:22.176Z,100.00
2019-03-12T00:46:49.222Z,100.00
2019-03-12T00:49:18.077Z,100.00
2019-03-12T00:51:45.162Z,100.00
2019-03-12T00:54:12.259Z,100.00
2019-03-12T00:56:39.375Z,100.00
2019-03-12T00:59:06.469Z,100.00
2019-03-12T01:01:33.699Z,100.00
2019-03-12T01:04:00.875Z,100.00
2019-03-12T01:06:27.952Z,100.00
2019-03-12T01:08:55.149Z,100.00
2019-03-12T01:11:22.220Z,100.00
2019-03-12T01:13:49.396Z,100.00
2019-03-12T01:16:16.614Z,100.00
2019-03-12T01:18:43.898Z,100.00
2019-03-12T01:21:11.022Z,100.00
2019-03-12T01:23:38.072Z,100.00
2019-03-12T01:26:05.122Z,100.00
2019-03-12T01:28:32.211Z,100.00
2019-03-12T01:30:59.260Z,100.00
2019-03-12T01:33:26.459Z,100.00
2019-03-12T01:36:16.363Z,100.00
2019-03-12T01:38:43.485Z,100.00
2019-03-12T01:41:10.518Z,100.00
2019-03-12T01:43:37.576Z,100.00
2019-03-12T01:46:04.752Z,100.00
2019-03-12T01:48:31.787Z,100.00
2019-03-12T01:50:58.894Z,100.00
2019-03-12T01:53:25.945Z,100.00
2019-03-12T01:56:29.718Z,100.00
2019-03-12T01:58:56.774Z,100.00
2019-03-12T02:01:23.813Z,100.00
2019-03-12T02:03:50.886Z,100.00
2019-03-12T02:06:17.924Z,100.00
2019-03-12T02:08:44.965Z,100.00
2019-03-12T02:11:12.021Z,100.00
2019-03-12T02:13:39.106Z,100.00
2019-03-12T02:16:06.147Z,100.00
2019-03-12T02:18:33.255Z,100.00
2019-03-12T02:21:00.390Z,100.00
2019-03-12T02:23:28.926Z,100.00
2019-03-12T02:25:56.413Z,100.00
2019-03-12T02:28:23.438Z,100.00
2019-03-12T02:30:50.619Z,100.00
2019-03-12T02:33:17.684Z,100.00
2019-03-12T02:35:44.795Z,100.00
2019-03-12T02:38:11.865Z,100.00
2019-03-12T02:40:38.928Z,100.00
2019-03-12T02:43:06.012Z,100.00
2019-03-12T02:45:33.047Z,100.00
2019-03-12T02:48:01.288Z,100.00
2019-03-12T02:50:28.372Z,100.00
2019-03-12T02:52:55.414Z,100.00
2019-03-12T02:55:22.451Z,100.00
2019-03-12T02:57:49.532Z,100.00
2019-03-12T03:00:19.864Z,100.00
2019-03-12T03:02:46.901Z,100.00
2019-03-12T03:05:14.171Z,100.00
2019-03-12T03:07:50.055Z,100.00
2019-03-12T03:10:17.365Z,100.00
2019-03-12T03:12:44.527Z,100.00
2019-03-12T03:15:18.380Z,100.00
2019-03-12T03:17:45.439Z,100.00
2019-03-12T03:20:12.574Z,100.00
2019-03-12T03:22:39.674Z,100.00
2019-03-12T03:25:06.918Z,100.00
2019-03-12T03:27:34.535Z,100.00
2019-03-12T03:30:03.581Z,100.00
2019-03-12T03:32:30.894Z,100.00
2019-03-12T03:34:57.985Z,100.00
2019-03-12T03:37:25.061Z,100.00
2019-03-12T03:39:52.110Z,100.00
2019-03-12T03:42:19.254Z,100.00
2019-03-12T03:44:46.322Z,100.00
2019-03-12T03:47:13.352Z,100.00
2019-03-12T03:49:40.398Z,100.00
2019-03-12T03:52:07.494Z,100.00
2019-03-12T03:54:34.665Z,100.00
2019-03-12T03:57:01.935Z,100.00
2019-03-12T03:59:29.000Z,100.00
2019-03-12T04:01:56.039Z,100.00
2019-03-12T04:04:23.080Z,100.00
2019-03-12T04:06:50.352Z,100.00
2019-03-12T04:09:17.365Z,100.00
2019-03-12T04:11:44.408Z,100.00
2019-03-12T04:14:11.490Z,100.00
2019-03-12T04:17:21.378Z,100.00
2019-03-12T04:19:48.459Z,100.00
2019-03-12T04:22:15.495Z,100.00
2019-03-12T04:24:42.557Z,100.00
2019-03-12T04:27:09.634Z,100.00
2019-03-12T04:29:37.621Z,100.00
2019-03-12T04:32:04.748Z,100.00
2019-03-12T04:34:37.400Z,100.00
2019-03-12T04:37:04.558Z,100.00
2019-03-12T04:39:31.632Z,100.00
2019-03-12T04:41:58.680Z,100.00
2019-03-12T04:44:30.373Z,100.00
2019-03-12T04:46:57.462Z,100.00
2019-03-12T04:49:24.503Z,100.00
2019-03-12T04:51:51.560Z,100.00
2019-03-12T04:54:18.630Z,100.00
2019-03-12T04:56:45.695Z,100.00
2019-03-12T04:59:12.751Z,100.00
2019-03-12T05:01:39.832Z,100.00
2019-03-12T05:04:06.912Z,100.00
2019-03-12T05:06:33.921Z,100.00
2019-03-12T05:09:01.021Z,100.00
2019-03-12T05:11:28.379Z,100.00
2019-03-12T05:14:24.153Z,100.00
2019-03-12T05:16:52.994Z,100.00
2019-03-12T05:19:20.551Z,100.00
2019-03-12T05:21:47.612Z,100.00
2019-03-12T05:24:14.677Z,100.00
2019-03-12T05:26:41.724Z,100.00
2019-03-12T05:29:13.430Z,100.00
2019-03-12T05:31:44.739Z,100.00
2019-03-12T05:34:13.572Z,100.00
2019-03-12T05:36:48.009Z,100.00
2019-03-12T05:39:15.089Z,100.00
2019-03-12T05:41:42.169Z,100.00
2019-03-12T05:44:09.241Z,100.00
2019-03-12T05:46:36.282Z,100.00
2019-03-12T05:49:03.331Z,100.00
2019-03-12T05:51:30.425Z,100.00
2019-03-12T05:53:57.499Z,100.00
2019-03-12T05:56:24.545Z,100.00
2019-03-12T05:58:51.644Z,100.00
2019-03-12T06:01:18.696Z,100.00
2019-03-12T06:03:45.740Z,100.00
2019-03-12T06:06:12.919Z,100.00
2019-03-12T06:08:39.963Z,100.00
2019-03-12T06:11:07.012Z,100.00
2019-03-12T06:13:34.198Z,100.00
2019-03-12T06:16:01.563Z,100.00
2019-03-12T06:18:28.612Z,100.00
2019-03-12T06:20:55.692Z,100.00
2019-03-12T06:23:22.796Z,100.00
2019-03-12T06:25:50.230Z,100.00
2019-03-12T06:28:17.276Z,100.00
2019-03-12T06:31:04.220Z,100.00
2019-03-12T06:33:47.582Z,100.00
2019-03-12T06:36:37.097Z,100.00
2019-03-12T06:39:14.356Z,100.00
2019-03-12T06:42:10.054Z,100.00
2019-03-12T06:44:44.292Z,100.00
2019-03-12T06:47:40.308Z,100.00
2019-03-12T06:50:17.316Z,100.00
2019-03-12T06:53:04.030Z,100.00
2019-03-12T06:55:48.633Z,100.00
2019-03-12T06:58:54.105Z,100.00
2019-03-12T07:02:24.620Z,100.00
2019-03-12T07:05:10.064Z,100.00
2019-03-12T07:07:55.605Z,100.00
2019-03-12T07:10:41.269Z,100.00
2019-03-12T07:13:34.197Z,100.00
2019-03-12T07:16:23.621Z,100.00
2019-03-12T07:19:13.049Z,100.00
2019-03-12T07:22:02.610Z,100.00
2019-03-12T07:24:40.436Z,100.00
2019-03-12T07:27:29.888Z,100.00
2019-03-12T07:30:15.251Z,100.00
2019-03-12T07:33:00.893Z,100.00
2019-03-12T07:35:46.473Z,100.00
2019-03-12T07:38:42.421Z,100.00
2019-03-12T07:41:32.959Z,100.00
2019-03-12T07:44:19.635Z,100.00
2019-03-12T07:46:52.189Z,100.00
2019-03-12T07:49:38.920Z,100.00
2019-03-12T07:52:17.809Z,100.00
2019-03-12T07:55:13.171Z,100.00
2019-03-12T07:57:53.571Z,100.00
2019-03-12T08:00:32.314Z,99.10
2019-03-12T08:03:16.852Z,98.77
2019-03-12T08:06:02.427Z,97.44
2019-03-12T08:08:48.114Z,96.78
2019-03-12T08:11:22.719Z,95.38
2019-03-12T08:14:09.383Z,94.82
2019-03-12T08:17:08.263Z,94.33
2019-03-12T08:19:53.791Z,92.80
2019-03-12T08:22:39.269Z,93.14
2019-03-12T08:25:22.074Z,91.36
2019-03-12T08:27:57.951Z,90.93
2019-03-12T08:30:45.431Z,90.48
2019-03-12T08:33:50.630Z,90.76
2019-03-12T08:36:27.567Z,88.36
2019-03-12T08:39:14.244Z,87.94
2019-03-12T08:42:18.995Z,87.96
2019-03-12T08:45:17.946Z,86.33
2019-03-12T08:48:12.932Z,86.37
2019-03-12T08:51:05.568Z,86.39
2019-03-12T08:53:55.095Z,85.44
2019-03-12T08:56:39.035Z,83.21
2019-03-12T08:59:18.966Z,84.44
2019-03-12T09:02:04.135Z,84.29
2019-03-12T09:05:07.059Z,82.76
2019-03-12T09:07:44.134Z,81.55
2019-03-12T09:10:32.325Z,80.89
2019-03-12T09:13:12.014Z,81.43
2019-03-12T09:15:58.698Z,80.96
2019-03-12T09:19:01.302Z,80.53
2019-03-12T09:21:50.956Z,79.36
2019-03-12T09:24:27.966Z,80.60
2019-03-12T09:27:02.213Z,79.23
2019-03-12T09:29:51.432Z,77.66
2019-03-12T09:32:31.765Z,78.35
2019-03-12T09:35:12.833Z,77.58
2019-03-12T09:37:53.571Z,77.41
2019-03-12T09:40:34.149Z,76.91
2019-03-12T09:43:31.602Z,75.94
2019-03-12T09:46:36.522Z,75.65
2019-03-12T09:49:27.650Z,76.68
2019-03-12T09:52:04.690Z,75.49
2019-03-12T09:54:43.560Z,75.23
2019-03-12T09:57:30.346Z,73.30
2019-03-12T10:00:21.489Z,72.14
2019-03-12T10:03:08.572Z,73.93
2019-03-12T10:05:55.222Z,73.16
2019-03-12T10:08:47.951Z,72.82
2019-03-12T10:11:40.366Z,72.97
2019-03-12T10:14:29.814Z,70.81
2019-03-12T10:17:22.212Z,72.36
2019-03-12T10:19:56.321Z,72.95
2019-03-12T10:22:40.635Z,71.36
2019-03-12T10:25:27.556Z,69.19
2019-03-12T10:28:05.780Z,67.81
2019-03-12T10:30:50.964Z,68.59
2019-03-12T10:33:35.297Z,69.42
2019-03-12T10:36:30.919Z,67.82
2019-03-12T10:39:56.442Z,67.10
2019-03-12T10:42:35.877Z,66.70
2019-03-12T10:45:21.330Z,65.88
2019-03-12T10:47:48.445Z,65.39
2019-03-12T10:50:15.519Z,65.53
2019-03-12T10:52:42.583Z,65.21
2019-03-12T10:55:13.367Z,64.47
2019-03-12T10:57:43.048Z,63.66
2019-03-12T11:00:11.208Z,62.47
2019-03-12T11:02:40.670Z,63.57
2019-03-12T11:05:07.676Z,62.79
2019-03-12T11:07:34.743Z,63.97
2019-03-12T11:10:01.877Z,64.62
2019-03-12T11:12:29.055Z,61.81
2019-03-12T11:14:56.239Z,61.28
2019-03-12T11:17:23.315Z,63.16
2019-03-12T11:19:50.498Z,64.22
2019-03-12T11:22:17.666Z,61.48
2019-03-12T11:24:44.902Z,61.12
2019-03-12T11:27:12.003Z,63.10
2019-03-12T11:29:39.052Z,62.53
2019-03-12T11:32:06.288Z,62.08
2019-03-12T11:34:33.415Z,60.93
2019-03-12T11:37:00.651Z,59.66
2019-03-12T11:39:27.900Z,59.84
2019-03-12T11:41:54.978Z,60.59
2019-03-12T11:44:22.201Z,58.82
2019-03-12T11:46:49.366Z,57.32
2019-03-12T11:49:16.668Z,58.68
2019-03-12T11:51:43.700Z,59.70
2019-03-12T11:54:10.769Z,56.50
2019-03-12T11:56:38.091Z,56.66
2019-03-12T11:59:05.173Z,57.29
2019-03-12T12:01:33.349Z,58.30
2019-03-12T12:04:00.462Z,57.08
2019-03-12T12:06:27.521Z,55.97
2019-03-12T12:08:54.672Z,55.06
2019-03-12T12:11:21.765Z,54.57
2019-03-12T12:13:48.838Z,56.09
2019-03-12T12:16:16.158Z,56.06
2019-03-12T12:18:43.434Z,55.85
2019-03-12T12:21:17.706Z,55.60
2019-03-12T12:23:44.801Z,54.87
2019-03-12T12:26:11.876Z,54.57
2019-03-12T12:28:57.406Z,55.16
2019-03-12T12:31:24.508Z,54.02
2019-03-12T12:33:51.568Z,54.52
2019-03-12T12:36:18.674Z,53.00
2019-03-12T12:38:45.784Z,51.34
2019-03-12T12:41:12.974Z,49.80
2019-03-12T12:43:40.067Z,50.84
2019-03-12T12:46:07.163Z,51.25
2019-03-12T12:48:41.782Z,51.87
2019-03-12T12:51:08.823Z,51.81
2019-03-12T12:53:41.932Z,51.89
2019-03-12T12:56:08.985Z,51.42
2019-03-12T12:58:36.048Z,52.62
2019-03-12T13:01:03.198Z,52.68
2019-03-12T13:03:30.245Z,53.08
2019-03-12T13:05:57.325Z,52.92
2019-03-12T13:08:24.428Z,52.70
2019-03-12T13:10:51.482Z,52.47
2019-03-12T13:13:18.529Z,53.12
2019-03-12T13:15:45.609Z,52.07
2019-03-12T13:18:12.653Z,53.83
2019-03-12T13:20:39.829Z,52.79
2019-03-12T13:23:06.930Z,51.23
2019-03-12T13:25:33.974Z,51.47
2019-03-12T13:28:01.053Z,52.56
2019-03-12T13:30:28.123Z,51.84
2019-03-12T13:32:55.188Z,50.72
2019-03-12T13:35:22.334Z,50.32
2019-03-12T13:37:49.451Z,49.75
2019-03-12T13:40:17.492Z,50.18
2019-03-12T13:42:44.776Z,49.87
2019-03-12T13:45:17.475Z,48.79
2019-03-12T13:47:46.317Z,49.53
2019-03-12T13:50:13.890Z,50.86
2019-03-12T13:52:40.987Z,51.13
2019-03-12T13:55:08.968Z,51.57
2019-03-12T13:57:36.132Z,52.42
2019-03-12T14:00:06.184Z,51.38
2019-03-12T14:02:33.469Z,52.04
2019-03-12T14:05:00.532Z,52.66
2019-03-12T14:07:27.613Z,53.20
2019-03-12T14:09:54.773Z,51.86
2019-03-12T14:12:21.925Z,52.23
2019-03-12T14:14:49.102Z,53.17
2019-03-12T14:17:16.144Z,51.42
2019-03-12T14:19:43.204Z,51.02
2019-03-12T14:22:10.290Z,51.53
2019-03-12T14:24:37.444Z,52.03
2019-03-12T14:27:04.621Z,51.90
2019-03-12T14:29:33.821Z,51.61
2019-03-12T14:32:01.011Z,51.73
2019-03-12T14:34:28.158Z,50.93
2019-03-12T14:36:55.333Z,52.77
2019-03-12T14:39:22.541Z,51.20
2019-03-12T14:41:49.767Z,52.39
2019-03-12T14:44:17.129Z,52.98
2019-03-12T14:46:44.370Z,52.57
2019-03-12T14:49:11.511Z,52.35
2019-03-12T14:52:03.260Z,53.56
2019-03-12T14:54:30.323Z,52.80
2019-03-12T14:56:57.555Z,51.87
2019-03-12T14:59:24.824Z,52.26
2019-03-12T15:01:51.979Z,51.72
2019-03-12T15:04:19.048Z,53.03
2019-03-12T15:06:46.272Z,52.40
2019-03-12T15:09:14.856Z,51.80
2019-03-12T15:11:42.181Z,52.03
2019-03-12T15:14:09.321Z,51.82
2019-03-12T15:16:36.391Z,50.92
2019-03-12T15:19:03.735Z,51.02
2019-03-12T15:21:30.998Z,50.67
2019-03-12T15:23:58.321Z,51.77
2019-03-12T15:26:25.390Z,51.68
2019-03-12T15:28:52.518Z,53.19
2019-03-12T15:31:19.822Z,53.16
2019-03-12T15:33:47.394Z,53.41
2019-03-12T15:36:14.519Z,53.87
2019-03-12T15:38:41.735Z,52.97
2019-03-12T15:41:08.772Z,51.39
2019-03-12T15:43:35.811Z,51.38
2019-03-12T15:46:03.325Z,50.48
2019-03-12T15:48:30.585Z,50.87
2019-03-12T15:50:57.767Z,51.27
2019-03-12T15:53:24.883Z,50.44
2019-03-12T15:55:51.954Z,50.64
2019-03-12T15:58:19.036Z,51.67
2019-03-12T16:00:46.116Z,52.61
2019-03-12T16:03:13.201Z,51.26
2019-03-12T16:05:40.245Z,51.38
2019-03-12T16:08:07.316Z,50.65
2019-03-12T16:10:34.511Z,50.98
2019-03-12T16:13:01.597Z,50.62
2019-03-12T16:15:28.669Z,49.03
2019-03-12T16:17:55.793Z,50.57
2019-03-12T16:20:22.878Z,51.18
2019-03-12T16:22:50.036Z,50.93
2019-03-12T16:25:17.451Z,50.99
2019-03-12T16:27:44.791Z,50.83
2019-03-12T16:30:12.042Z,51.09
2019-03-12T16:32:39.138Z,50.55
2019-03-12T16:35:06.586Z,49.21
2019-03-12T16:37:33.981Z,50.15
2019-03-12T16:40:01.214Z,49.26
2019-03-12T16:42:34.966Z,49.68
2019-03-12T16:44:57.303Z,48.80
2019-03-12T16:47:24.639Z,47.86
2019-03-12T16:49:51.988Z,47.97
2019-03-12T16:52:19.110Z,49.29
2019-03-12T16:54:46.144Z,49.05
2019-03-12T16:57:13.205Z,48.09
2019-03-12T16:59:40.329Z,47.77
2019-03-12T17:02:07.444Z,48.26
2019-03-12T17:04:35.612Z,47.73
2019-03-12T17:07:02.728Z,49.26
2019-03-12T17:10:12.786Z,50.07
2019-03-12T17:12:39.885Z,48.49
2019-03-12T17:15:09.145Z,50.48
2019-03-12T17:17:36.302Z,49.89
2019-03-12T17:20:03.966Z,49.86
2019-03-12T17:22:31.055Z,48.92
2019-03-12T17:24:58.141Z,48.74
2019-03-12T17:27:25.418Z,48.74
2019-03-12T17:29:52.475Z,49.76
2019-03-12T17:32:19.564Z,50.86
2019-03-12T17:34:46.672Z,50.50
2019-03-12T17:37:13.867Z,50.95
2019-03-12T17:39:41.289Z,51.72
2019-03-12T17:42:08.403Z,50.89
2019-03-12T17:44:35.773Z,51.41
2019-03-12T17:47:02.971Z,50.90
2019-03-12T17:49:30.079Z,50.86
2019-03-12T17:51:57.265Z,51.38
2019-03-12T17:54:24.486Z,51.45
2019-03-12T17:56:51.562Z,50.58
2019-03-12T17:59:19.122Z,50.93
2019-03-12T18:01:46.205Z,50.48
2019-03-12T18:04:13.522Z,51.23
2019-03-12T18:06:40.778Z,52.20
2019-03-12T18:09:08.971Z,51.64
2019-03-12T18:11:36.205Z,52.16
2019-03-12T18:14:03.274Z,52.23
2019-03-12T18:16:41.089Z,51.54
2019-03-12T18:19:01.241Z,51.36
2019-03-12T18:21:28.398Z,52.35
2019-03-12T18:23:55.593Z,52.54
2019-03-12T18:26:23.432Z,52.15
2019-03-12T18:28:51.721Z,52.93
2019-03-12T18:31:19.343Z,53.75
2019-03-12T18:33:46.653Z,53.63
2019-03-12T18:36:13.809Z,53.75
2019-03-12T18:38:41.280Z,54.09
2019-03-12T18:41:08.550Z,53.84
2019-03-12T18:43:35.644Z,54.58
2019-03-12T18:46:02.816Z,54.41
2019-03-12T18:48:30.069Z,54.50
2019-03-12T18:50:57.566Z,56.40
2019-03-12T18:53:24.915Z,58.62
2019-03-12T18:56:10.513Z,60.20
2019-03-12T18:58:37.596Z,60.29
2019-03-12T19:01:09.095Z,60.76
2019-03-12T19:03:36.199Z,61.01
2019-03-12T19:06:03.349Z,61.99
2019-03-12T19:08:30.521Z,62.94
2019-03-12T19:10:57.634Z,62.96
2019-03-12T19:13:26.621Z,65.03
2019-03-12T19:15:56.356Z,67.87
2019-03-12T19:18:23.440Z,69.60
2019-03-12T19:20:50.707Z,71.36
2019-03-12T19:23:17.964Z,72.25
2019-03-12T19:25:45.285Z,73.42
2019-03-12T19:28:13.684Z,74.74
2019-03-12T19:30:40.884Z,76.14
2019-03-12T19:33:10.193Z,77.92
2019-03-12T19:35:37.404Z,80.00
2019-03-12T19:38:04.590Z,80.90
2019-03-12T19:40:32.063Z,82.42
2019-03-12T19:42:59.206Z,84.77
2019-03-12T19:45:26.280Z,86.06
2019-03-12T19:47:53.497Z,85.85
2019-03-12T19:50:21.127Z,85.88
2019-03-12T19:52:48.208Z,85.64
2019-03-12T19:55:19.681Z,85.89
2019-03-12T19:57:46.798Z,85.87
2019-03-12T20:00:15.781Z,85.97
2019-03-12T20:02:45.657Z,85.29
2019-03-12T20:05:12.896Z,84.48
2019-03-12T20:07:40.465Z,83.76
2019-03-12T20:11:07.518Z,83.91
2019-03-12T20:14:27.950Z,84.16
2019-03-12T20:17:36.005Z,84.11
2019-03-12T20:20:40.197Z,83.75
2019-03-12T20:24:02.752Z,83.92
2019-03-12T20:27:16.894Z,86.04
2019-03-12T20:30:24.507Z,88.64
2019-03-12T20:33:30.220Z,93.94
2019-03-12T20:36:34.872Z,100.00
2019-03-12T20:40:04.907Z,100.00
2019-03-12T20:43:09.579Z,100.00
2019-03-12T20:46:52.446Z,100.00
2019-03-12T20:49:56.189Z,100.00
2019-03-12T20:52:59.769Z,100.00
2019-03-12T20:56:04.557Z,100.00
2019-03-12T20:59:08.590Z,100.00
2019-03-12T21:02:15.951Z,100.00
2019-03-12T21:05:24.978Z,100.00
2019-03-12T21:08:41.899Z,100.00
2019-03-12T21:11:47.529Z,100.00
2019-03-12T21:14:58.767Z,100.00
2019-03-12T21:18:25.680Z,100.00
2019-03-12T21:21:33.802Z,100.00
2019-03-12T21:24:44.965Z,100.00
2019-03-12T21:27:58.644Z,100.00
2019-03-12T21:30:26.384Z,100.00
2019-03-12T21:32:53.583Z,100.00
2019-03-12T21:35:20.688Z,100.00
2019-03-12T21:37:50.087Z,100.00
2019-03-12T21:40:17.320Z,100.00
2019-03-12T21:42:44.413Z,100.00
2019-03-12T21:45:12.247Z,100.00
2019-03-12T21:47:39.320Z,100.00
2019-03-12T21:50:07.188Z,100.00
2019-03-12T21:52:36.131Z,100.00
2019-03-12T21:55:03.996Z,100.00
2019-03-12T21:57:31.094Z,100.00
2019-03-12T21:59:58.202Z,100.00
2019-03-12T22:02:25.321Z,100.00
2019-03-12T22:04:52.376Z,100.00
2019-03-12T22:07:19.478Z,100.00
2019-03-12T22:09:46.626Z,100.00
2019-03-12T22:12:13.692Z,100.00
2019-03-12T22:14:40.796Z,100.00
2019-03-12T22:17:07.901Z,100.00
2019-03-12T22:19:35.154Z,100.00
2019-03-12T22:22:10.324Z,100.00
2019-03-12T22:24:37.377Z,100.00
2019-03-12T22:27:04.646Z,100.00
2019-03-12T22:29:31.799Z,100.00
2019-03-12T22:31:59.142Z,100.00
2019-03-12T22:34:26.205Z,100.00
2019-03-12T22:36:53.297Z,100.00
2019-03-12T22:40:15.141Z,100.00
2019-03-12T22:42:42.394Z,100.00
2019-03-12T22:45:09.488Z,100.00
2019-03-12T22:48:13.289Z,100.00
2019-03-12T22:50:40.371Z,100.00
2019-03-12T22:53:07.556Z,100.00
2019-03-12T22:55:35.783Z,100.00
2019-03-12T22:58:11.213Z,100.00
2019-03-12T23:00:39.382Z,100.00
2019-03-12T23:03:06.440Z,100.00
2019-03-12T23:05:33.488Z,100.00
2019-03-12T23:08:00.742Z,100.00
2019-03-12T23:10:28.552Z,100.00
2019-03-12T23:12:56.021Z,100.00
2019-03-12T23:15:23.114Z,100.00
2019-03-12T23:17:50.248Z,100.00
2019-03-12T23:20:18.763Z,100.00
2019-03-12T23:22:45.879Z,100.00
2019-03-12T23:25:12.939Z,100.00
2019-03-12T23:27:39.986Z,100.00
2019-03-12T23:30:09.555Z,100.00
2019-03-12T23:32:36.695Z,100.00
2019-03-12T23:35:04.620Z,100.00
2019-03-12T23:37:31.722Z,100.00
2019-03-12T23:39:58.776Z,100.00
2019-03-12T23:42:25.975Z,100.00
2019-03-12T23:44:54.467Z,100.00
2019-03-12T23:47:21.518Z,100.00
2019-03-12T23:49:49.205Z,100.00
2019-03-12T23:52:16.314Z,100.00
2019-03-12T23:54:43.374Z,100.00
2019-03-12T23:57:10.532Z,100.00
2019-03-12T23:59:38.106Z,100.00
